sensor_id;sensor_type;location;lat;lon;timestamp;P1;durP1;ratioP1;P2;durP2;ratioP2
9767;SDS011;4923;52.520;13.494;2023-04-25T00:01:52;1.67;;;1.35;;
9767;SDS011;4923;52.520;13.494;2023-04-25T00:04:39;1.92;;;1.77;;
9767;SDS011;4923;52.520;13.494;2023-04-25T00:07:26;1.83;;;1.25;;
9767;SDS011;4923;52.520;13.494;2023-04-25T00:10:12;1.20;;;1.20;;
9767;SDS011;4923;52.520;13.494;2023-04-25T00:12:59;1.00;;;1.00;;
9767;SDS011;4923;52.520;13.494;2023-04-25T00:15:48;4.53;;;1.33;;
9767;SDS011;4923;52.520;13.494;2023-04-25T00:18:36;1.00;;;1.00;;
9767;SDS011;4923;52.520;13.494;2023-04-25T00:21:24;1.95;;;1.25;;
9767;SDS011;4923;52.520;13.494;2023-04-25T00:24:11;3.08;;;1.35;;
9767;SDS011;4923;52.520;13.494;2023-04-25T00:26:58;3.08;;;1.10;;
9767;SDS011;4923;52.520;13.494;2023-04-25T00:29:44;2.15;;;1.27;;
9767;SDS011;4923;52.520;13.494;2023-04-25T00:32:31;0.90;;;0.90;;
9767;SDS011;4923;52.520;13.494;2023-04-25T00:35:19;5.18;;;1.02;;
9767;SDS011;4923;52.520;13.494;2023-04-25T00:38:06;1.13;;;1.10;;
9767;SDS011;4923;52.520;13.494;2023-04-25T00:40:53;1.60;;;0.88;;
9767;SDS011;4923;52.520;13.494;2023-04-25T00:43:41;4.20;;;1.25;;
9767;SDS011;4923;52.520;13.494;2023-04-25T00:46:28;1.83;;;1.30;;
9767;SDS011;4923;52.520;13.494;2023-04-25T00:49:16;2.17;;;1.45;;
9767;SDS011;4923;52.520;13.494;2023-04-25T00:52:04;6.25;;;1.08;;
9767;SDS011;4923;52.520;13.494;2023-04-25T00:54:51;5.38;;;1.17;;
9767;SDS011;4923;52.520;13.494;2023-04-25T00:57:38;2.15;;;1.27;;
9767;SDS011;4923;52.520;13.494;2023-04-25T01:00:26;4.00;;;1.08;;
9767;SDS011;4923;52.520;13.494;2023-04-25T01:03:13;3.20;;;1.40;;
9767;SDS011;4923;52.520;13.494;2023-04-25T01:06:01;2.08;;;1.38;;
9767;SDS011;4923;52.520;13.494;2023-04-25T01:08:50;2.28;;;0.95;;
9767;SDS011;4923;52.520;13.494;2023-04-25T01:11:37;3.97;;;1.17;;
9767;SDS011;4923;52.520;13.494;2023-04-25T01:14:25;6.65;;;1.20;;
9767;SDS011;4923;52.520;13.494;2023-04-25T01:17:12;4.53;;;1.65;;
9767;SDS011;4923;52.520;13.494;2023-04-25T01:20:00;2.83;;;1.77;;
9767;SDS011;4923;52.520;13.494;2023-04-25T01:22:51;4.07;;;1.55;;
9767;SDS011;4923;52.520;13.494;2023-04-25T01:25:39;1.92;;;1.15;;
9767;SDS011;4923;52.520;13.494;2023-04-25T01:28:26;3.70;;;1.48;;
9767;SDS011;4923;52.520;13.494;2023-04-25T01:31:14;3.60;;;1.38;;
9767;SDS011;4923;52.520;13.494;2023-04-25T01:34:02;2.28;;;1.52;;
9767;SDS011;4923;52.520;13.494;2023-04-25T01:36:49;3.42;;;1.73;;
9767;SDS011;4923;52.520;13.494;2023-04-25T01:39:37;11.75;;;3.03;;
9767;SDS011;4923;52.520;13.494;2023-04-25T01:42:24;2.25;;;1.33;;
9767;SDS011;4923;52.520;13.494;2023-04-25T01:45:12;5.80;;;1.67;;
9767;SDS011;4923;52.520;13.494;2023-04-25T01:47:59;2.33;;;1.30;;
9767;SDS011;4923;52.520;13.494;2023-04-25T01:50:47;3.35;;;1.80;;
9767;SDS011;4923;52.520;13.494;2023-04-25T01:53:35;4.50;;;1.63;;
9767;SDS011;4923;52.520;13.494;2023-04-25T01:56:24;1.75;;;1.65;;
9767;SDS011;4923;52.520;13.494;2023-04-25T01:59:11;5.10;;;1.40;;
9767;SDS011;4923;52.520;13.494;2023-04-25T02:01:58;2.08;;;1.45;;
9767;SDS011;4923;52.520;13.494;2023-04-25T02:04:44;3.03;;;1.90;;
9767;SDS011;4923;52.520;13.494;2023-04-25T02:07:31;1.52;;;1.40;;
9767;SDS011;4923;52.520;13.494;2023-04-25T02:10:18;7.13;;;2.10;;
9767;SDS011;4923;52.520;13.494;2023-04-25T02:13:06;2.88;;;1.92;;
9767;SDS011;4923;52.520;13.494;2023-04-25T02:15:53;3.85;;;1.58;;
9767;SDS011;4923;52.520;13.494;2023-04-25T02:18:40;2.50;;;2.13;;
9767;SDS011;4923;52.520;13.494;2023-04-25T02:21:27;4.43;;;2.55;;
9767;SDS011;4923;52.520;13.494;2023-04-25T02:24:15;3.92;;;1.80;;
9767;SDS011;4923;52.520;13.494;2023-04-25T02:27:02;6.47;;;2.78;;
9767;SDS011;4923;52.520;13.494;2023-04-25T02:29:50;3.88;;;2.70;;
9767;SDS011;4923;52.520;13.494;2023-04-25T02:32:37;2.60;;;2.20;;
9767;SDS011;4923;52.520;13.494;2023-04-25T02:35:24;10.55;;;1.83;;
9767;SDS011;4923;52.520;13.494;2023-04-25T02:38:11;3.75;;;2.00;;
9767;SDS011;4923;52.520;13.494;2023-04-25T02:40:58;2.38;;;2.15;;
9767;SDS011;4923;52.520;13.494;2023-04-25T02:43:45;2.10;;;1.90;;
9767;SDS011;4923;52.520;13.494;2023-04-25T02:46:34;6.15;;;1.90;;
9767;SDS011;4923;52.520;13.494;2023-04-25T02:49:20;7.78;;;3.10;;
9767;SDS011;4923;52.520;13.494;2023-04-25T02:52:07;2.58;;;1.65;;
9767;SDS011;4923;52.520;13.494;2023-04-25T02:54:54;2.97;;;1.80;;
9767;SDS011;4923;52.520;13.494;2023-04-25T02:57:41;11.85;;;2.75;;
9767;SDS011;4923;52.520;13.494;2023-04-25T03:00:28;4.05;;;1.73;;
9767;SDS011;4923;52.520;13.494;2023-04-25T03:03:16;2.10;;;1.90;;
9767;SDS011;4923;52.520;13.494;2023-04-25T03:06:06;6.47;;;1.90;;
9767;SDS011;4923;52.520;13.494;2023-04-25T03:08:53;4.13;;;1.67;;
9767;SDS011;4923;52.520;13.494;2023-04-25T03:11:40;11.30;;;2.25;;
9767;SDS011;4923;52.520;13.494;2023-04-25T03:14:27;3.53;;;2.38;;
9767;SDS011;4923;52.520;13.494;2023-04-25T03:17:14;2.05;;;1.83;;
9767;SDS011;4923;52.520;13.494;2023-04-25T03:20:02;2.25;;;2.05;;
9767;SDS011;4923;52.520;13.494;2023-04-25T03:22:50;4.50;;;1.85;;
9767;SDS011;4923;52.520;13.494;2023-04-25T03:25:37;4.75;;;2.55;;
9767;SDS011;4923;52.520;13.494;2023-04-25T03:28:24;10.38;;;2.50;;
9767;SDS011;4923;52.520;13.494;2023-04-25T03:31:11;5.60;;;2.78;;
9767;SDS011;4923;52.520;13.494;2023-04-25T03:33:57;4.95;;;2.53;;
9767;SDS011;4923;52.520;13.494;2023-04-25T03:36:46;2.10;;;2.00;;
9767;SDS011;4923;52.520;13.494;2023-04-25T03:39:33;1.95;;;1.85;;
9767;SDS011;4923;52.520;13.494;2023-04-25T03:42:19;3.33;;;2.53;;
9767;SDS011;4923;52.520;13.494;2023-04-25T03:45:08;2.95;;;2.38;;
9767;SDS011;4923;52.520;13.494;2023-04-25T03:47:55;3.13;;;1.88;;
9767;SDS011;4923;52.520;13.494;2023-04-25T03:50:42;7.40;;;1.95;;
9767;SDS011;4923;52.520;13.494;2023-04-25T03:53:30;2.30;;;2.10;;
9767;SDS011;4923;52.520;13.494;2023-04-25T03:56:17;5.28;;;2.90;;
9767;SDS011;4923;52.520;13.494;2023-04-25T03:59:04;4.32;;;2.30;;
9767;SDS011;4923;52.520;13.494;2023-04-25T04:01:51;4.47;;;2.00;;
9767;SDS011;4923;52.520;13.494;2023-04-25T04:04:37;4.32;;;2.03;;
9767;SDS011;4923;52.520;13.494;2023-04-25T04:07:24;2.70;;;2.05;;
9767;SDS011;4923;52.520;13.494;2023-04-25T04:10:12;8.57;;;2.05;;
9767;SDS011;4923;52.520;13.494;2023-04-25T04:12:59;4.50;;;2.13;;
9767;SDS011;4923;52.520;13.494;2023-04-25T04:15:46;5.43;;;1.80;;
9767;SDS011;4923;52.520;13.494;2023-04-25T04:18:33;6.57;;;1.90;;
9767;SDS011;4923;52.520;13.494;2023-04-25T04:21:21;2.35;;;1.73;;
9767;SDS011;4923;52.520;13.494;2023-04-25T04:24:07;8.90;;;2.75;;
9767;SDS011;4923;52.520;13.494;2023-04-25T04:26:56;1.90;;;1.80;;
9767;SDS011;4923;52.520;13.494;2023-04-25T04:29:44;2.60;;;2.40;;
9767;SDS011;4923;52.520;13.494;2023-04-25T04:32:31;9.93;;;2.40;;
9767;SDS011;4923;52.520;13.494;2023-04-25T04:35:19;2.60;;;2.40;;
9767;SDS011;4923;52.520;13.494;2023-04-25T04:38:06;3.95;;;2.50;;
9767;SDS011;4923;52.520;13.494;2023-04-25T04:40:53;3.50;;;2.25;;
9767;SDS011;4923;52.520;13.494;2023-04-25T04:43:42;10.30;;;2.40;;
9767;SDS011;4923;52.520;13.494;2023-04-25T04:46:30;7.43;;;2.90;;
9767;SDS011;4923;52.520;13.494;2023-04-25T04:49:17;2.85;;;2.20;;
9767;SDS011;4923;52.520;13.494;2023-04-25T04:52:04;3.50;;;1.73;;
9767;SDS011;4923;52.520;13.494;2023-04-25T04:54:51;5.47;;;1.70;;
9767;SDS011;4923;52.520;13.494;2023-04-25T04:57:38;8.40;;;2.40;;
9767;SDS011;4923;52.520;13.494;2023-04-25T05:00:26;7.90;;;2.60;;
9767;SDS011;4923;52.520;13.494;2023-04-25T05:03:14;2.45;;;1.52;;
9767;SDS011;4923;52.520;13.494;2023-04-25T05:06:01;6.38;;;2.05;;
9767;SDS011;4923;52.520;13.494;2023-04-25T05:08:48;5.65;;;2.38;;
9767;SDS011;4923;52.520;13.494;2023-04-25T05:11:35;1.58;;;1.48;;
9767;SDS011;4923;52.520;13.494;2023-04-25T05:14:21;8.05;;;2.33;;
9767;SDS011;4923;52.520;13.494;2023-04-25T05:17:10;6.57;;;2.42;;
9767;SDS011;4923;52.520;13.494;2023-04-25T05:19:57;8.32;;;2.38;;
9767;SDS011;4923;52.520;13.494;2023-04-25T05:22:44;5.05;;;1.90;;
9767;SDS011;4923;52.520;13.494;2023-04-25T05:25:31;3.13;;;1.80;;
9767;SDS011;4923;52.520;13.494;2023-04-25T05:28:17;6.30;;;1.70;;
9767;SDS011;4923;52.520;13.494;2023-04-25T05:31:06;3.72;;;2.10;;
9767;SDS011;4923;52.520;13.494;2023-04-25T05:33:54;7.30;;;2.00;;
9767;SDS011;4923;52.520;13.494;2023-04-25T05:36:41;15.80;;;1.90;;
9767;SDS011;4923;52.520;13.494;2023-04-25T05:39:28;2.70;;;2.03;;
9767;SDS011;4923;52.520;13.494;2023-04-25T05:42:15;3.83;;;1.30;;
9767;SDS011;4923;52.520;13.494;2023-04-25T05:45:02;3.60;;;2.20;;
9767;SDS011;4923;52.520;13.494;2023-04-25T05:47:50;2.55;;;2.00;;
9767;SDS011;4923;52.520;13.494;2023-04-25T05:50:38;5.40;;;2.10;;
9767;SDS011;4923;52.520;13.494;2023-04-25T05:53:25;7.22;;;2.15;;
9767;SDS011;4923;52.520;13.494;2023-04-25T05:56:11;14.55;;;2.63;;
9767;SDS011;4923;52.520;13.494;2023-04-25T05:58:58;3.10;;;2.33;;
9767;SDS011;4923;52.520;13.494;2023-04-25T06:01:45;5.18;;;2.60;;
9767;SDS011;4923;52.520;13.494;2023-04-25T06:04:32;5.53;;;2.88;;
9767;SDS011;4923;52.520;13.494;2023-04-25T06:07:21;2.95;;;2.47;;
9767;SDS011;4923;52.520;13.494;2023-04-25T06:10:08;5.80;;;2.83;;
9767;SDS011;4923;52.520;13.494;2023-04-25T06:12:55;2.35;;;2.15;;
9767;SDS011;4923;52.520;13.494;2023-04-25T06:15:42;4.35;;;2.60;;
9767;SDS011;4923;52.520;13.494;2023-04-25T06:18:29;8.98;;;3.03;;
9767;SDS011;4923;52.520;13.494;2023-04-25T06:21:16;7.20;;;3.15;;
9767;SDS011;4923;52.520;13.494;2023-04-25T06:24:05;4.70;;;2.63;;
9767;SDS011;4923;52.520;13.494;2023-04-25T06:26:52;11.27;;;2.90;;
9767;SDS011;4923;52.520;13.494;2023-04-25T06:29:38;4.80;;;2.40;;
9767;SDS011;4923;52.520;13.494;2023-04-25T06:32:25;4.10;;;2.53;;
9767;SDS011;4923;52.520;13.494;2023-04-25T06:35:15;2.58;;;2.35;;
9767;SDS011;4923;52.520;13.494;2023-04-25T06:38:02;7.22;;;2.85;;
9767;SDS011;4923;52.520;13.494;2023-04-25T06:40:50;5.38;;;2.97;;
9767;SDS011;4923;52.520;13.494;2023-04-25T06:43:37;3.30;;;2.53;;
9767;SDS011;4923;52.520;13.494;2023-04-25T06:46:23;7.47;;;2.92;;
9767;SDS011;4923;52.520;13.494;2023-04-25T06:49:10;4.18;;;2.40;;
9767;SDS011;4923;52.520;13.494;2023-04-25T06:51:57;7.65;;;3.25;;
9767;SDS011;4923;52.520;13.494;2023-04-25T06:54:44;5.13;;;2.70;;
9767;SDS011;4923;52.520;13.494;2023-04-25T06:57:32;7.53;;;2.95;;
9767;SDS011;4923;52.520;13.494;2023-04-25T07:00:20;4.60;;;3.47;;
9767;SDS011;4923;52.520;13.494;2023-04-25T07:03:07;3.15;;;2.80;;
9767;SDS011;4923;52.520;13.494;2023-04-25T07:05:54;4.13;;;2.67;;
9767;SDS011;4923;52.520;13.494;2023-04-25T07:08:44;3.53;;;2.90;;
9767;SDS011;4923;52.520;13.494;2023-04-25T07:11:30;8.90;;;3.72;;
9767;SDS011;4923;52.520;13.494;2023-04-25T07:14:19;3.08;;;2.75;;
9767;SDS011;4923;52.520;13.494;2023-04-25T07:17:05;5.93;;;2.83;;
9767;SDS011;4923;52.520;13.494;2023-04-25T07:19:52;4.18;;;3.05;;
9767;SDS011;4923;52.520;13.494;2023-04-25T07:22:39;4.25;;;2.20;;
9767;SDS011;4923;52.520;13.494;2023-04-25T07:25:26;6.85;;;3.13;;
9767;SDS011;4923;52.520;13.494;2023-04-25T07:28:13;6.05;;;3.65;;
9767;SDS011;4923;52.520;13.494;2023-04-25T07:31:01;2.72;;;2.50;;
9767;SDS011;4923;52.520;13.494;2023-04-25T07:33:48;7.15;;;2.97;;
9767;SDS011;4923;52.520;13.494;2023-04-25T07:36:35;5.65;;;2.40;;
9767;SDS011;4923;52.520;13.494;2023-04-25T07:39:22;6.82;;;2.35;;
9767;SDS011;4923;52.520;13.494;2023-04-25T07:42:09;8.25;;;2.40;;
9767;SDS011;4923;52.520;13.494;2023-04-25T07:44:56;3.45;;;2.03;;
9767;SDS011;4923;52.520;13.494;2023-04-25T07:47:45;10.20;;;3.20;;
9767;SDS011;4923;52.520;13.494;2023-04-25T07:50:31;8.50;;;2.25;;
9767;SDS011;4923;52.520;13.494;2023-04-25T07:53:18;5.88;;;2.40;;
9767;SDS011;4923;52.520;13.494;2023-04-25T07:56:05;6.10;;;2.22;;
9767;SDS011;4923;52.520;13.494;2023-04-25T07:58:53;7.47;;;2.38;;
9767;SDS011;4923;52.520;13.494;2023-04-25T08:01:40;5.95;;;2.65;;
9767;SDS011;4923;52.520;13.494;2023-04-25T08:04:28;11.07;;;2.35;;
9767;SDS011;4923;52.520;13.494;2023-04-25T08:07:15;15.70;;;2.53;;
9767;SDS011;4923;52.520;13.494;2023-04-25T08:10:01;15.98;;;2.70;;
9767;SDS011;4923;52.520;13.494;2023-04-25T08:12:48;4.90;;;1.92;;
9767;SDS011;4923;52.520;13.494;2023-04-25T08:15:35;11.35;;;2.17;;
9767;SDS011;4923;52.520;13.494;2023-04-25T08:18:22;9.60;;;2.42;;
9767;SDS011;4923;52.520;13.494;2023-04-25T08:21:10;21.05;;;1.90;;
9767;SDS011;4923;52.520;13.494;2023-04-25T08:23:57;12.60;;;2.60;;
9767;SDS011;4923;52.520;13.494;2023-04-25T08:26:44;12.73;;;3.05;;
9767;SDS011;4923;52.520;13.494;2023-04-25T08:29:31;15.57;;;2.17;;
9767;SDS011;4923;52.520;13.494;2023-04-25T08:32:18;10.25;;;2.55;;
9767;SDS011;4923;52.520;13.494;2023-04-25T08:35:06;7.80;;;2.03;;
9767;SDS011;4923;52.520;13.494;2023-04-25T08:37:55;6.93;;;2.10;;
9767;SDS011;4923;52.520;13.494;2023-04-25T08:40:42;10.23;;;2.00;;
9767;SDS011;4923;52.520;13.494;2023-04-25T08:43:29;7.80;;;2.28;;
9767;SDS011;4923;52.520;13.494;2023-04-25T08:46:17;16.83;;;2.50;;
9767;SDS011;4923;52.520;13.494;2023-04-25T08:49:04;8.40;;;1.98;;
9767;SDS011;4923;52.520;13.494;2023-04-25T08:51:51;10.45;;;2.35;;
9767;SDS011;4923;52.520;13.494;2023-04-25T08:54:42;16.30;;;2.75;;
9767;SDS011;4923;52.520;13.494;2023-04-25T08:57:33;13.88;;;2.17;;
9767;SDS011;4923;52.520;13.494;2023-04-25T09:00:21;10.80;;;1.80;;
9767;SDS011;4923;52.520;13.494;2023-04-25T09:03:09;14.85;;;3.72;;
9767;SDS011;4923;52.520;13.494;2023-04-25T09:05:56;13.32;;;1.77;;
9767;SDS011;4923;52.520;13.494;2023-04-25T09:08:44;8.32;;;2.10;;
9767;SDS011;4923;52.520;13.494;2023-04-25T09:11:33;5.03;;;2.10;;
9767;SDS011;4923;52.520;13.494;2023-04-25T09:14:21;12.30;;;3.50;;
9767;SDS011;4923;52.520;13.494;2023-04-25T09:17:10;10.07;;;1.83;;
9767;SDS011;4923;52.520;13.494;2023-04-25T09:20:05;3.13;;;1.60;;
9767;SDS011;4923;52.520;13.494;2023-04-25T09:23:01;12.68;;;2.17;;
9767;SDS011;4923;52.520;13.494;2023-04-25T09:25:49;4.00;;;1.20;;
9767;SDS011;4923;52.520;13.494;2023-04-25T09:28:38;6.85;;;1.40;;
9767;SDS011;4923;52.520;13.494;2023-04-25T09:31:25;5.72;;;1.55;;
9767;SDS011;4923;52.520;13.494;2023-04-25T09:34:12;5.72;;;1.33;;
9767;SDS011;4923;52.520;13.494;2023-04-25T09:37:01;7.75;;;1.90;;
9767;SDS011;4923;52.520;13.494;2023-04-25T09:39:48;9.90;;;1.80;;
9767;SDS011;4923;52.520;13.494;2023-04-25T09:42:40;12.18;;;2.10;;
9767;SDS011;4923;52.520;13.494;2023-04-25T09:45:30;8.68;;;1.85;;
9767;SDS011;4923;52.520;13.494;2023-04-25T09:48:17;12.00;;;2.20;;
9767;SDS011;4923;52.520;13.494;2023-04-25T09:51:06;13.52;;;2.13;;
9767;SDS011;4923;52.520;13.494;2023-04-25T09:53:54;4.00;;;1.60;;
9767;SDS011;4923;52.520;13.494;2023-04-25T09:56:40;4.43;;;1.20;;
9767;SDS011;4923;52.520;13.494;2023-04-25T09:59:28;3.53;;;1.40;;
9767;SDS011;4923;52.520;13.494;2023-04-25T10:02:19;5.05;;;1.23;;
9767;SDS011;4923;52.520;13.494;2023-04-25T10:05:07;6.45;;;1.20;;
9767;SDS011;4923;52.520;13.494;2023-04-25T10:07:55;6.40;;;1.25;;
9767;SDS011;4923;52.520;13.494;2023-04-25T10:10:43;5.95;;;1.73;;
9767;SDS011;4923;52.520;13.494;2023-04-25T10:13:31;16.58;;;1.77;;
9767;SDS011;4923;52.520;13.494;2023-04-25T10:16:18;5.15;;;1.48;;
9767;SDS011;4923;52.520;13.494;2023-04-25T10:19:08;10.68;;;1.70;;
9767;SDS011;4923;52.520;13.494;2023-04-25T10:21:58;3.83;;;1.23;;
9767;SDS011;4923;52.520;13.494;2023-04-25T10:24:50;11.45;;;1.85;;
9767;SDS011;4923;52.520;13.494;2023-04-25T10:27:38;9.57;;;1.70;;
9767;SDS011;4923;52.520;13.494;2023-04-25T10:30:25;6.93;;;1.48;;
9767;SDS011;4923;52.520;13.494;2023-04-25T10:33:16;7.50;;;1.30;;
9767;SDS011;4923;52.520;13.494;2023-04-25T10:36:12;3.80;;;1.35;;
9767;SDS011;4923;52.520;13.494;2023-04-25T10:39:02;5.40;;;1.30;;
9767;SDS011;4923;52.520;13.494;2023-04-25T10:41:53;5.03;;;1.60;;
9767;SDS011;4923;52.520;13.494;2023-04-25T10:44:41;10.18;;;1.77;;
9767;SDS011;4923;52.520;13.494;2023-04-25T10:47:48;2.92;;;1.52;;
9767;SDS011;4923;52.520;13.494;2023-04-25T10:50:37;5.47;;;1.80;;
9767;SDS011;4923;52.520;13.494;2023-04-25T10:53:26;4.20;;;1.33;;
9767;SDS011;4923;52.520;13.494;2023-04-25T10:56:19;6.13;;;1.50;;
9767;SDS011;4923;52.520;13.494;2023-04-25T10:59:08;2.15;;;1.10;;
9767;SDS011;4923;52.520;13.494;2023-04-25T11:01:56;7.47;;;1.33;;
9767;SDS011;4923;52.520;13.494;2023-04-25T11:04:43;4.28;;;1.40;;
9767;SDS011;4923;52.520;13.494;2023-04-25T11:07:33;6.47;;;1.40;;
9767;SDS011;4923;52.520;13.494;2023-04-25T11:10:26;3.13;;;1.27;;
9767;SDS011;4923;52.520;13.494;2023-04-25T11:13:13;5.47;;;1.10;;
9767;SDS011;4923;52.520;13.494;2023-04-25T11:16:00;7.95;;;1.55;;
9767;SDS011;4923;52.520;13.494;2023-04-25T11:18:47;3.55;;;1.30;;
9767;SDS011;4923;52.520;13.494;2023-04-25T11:21:34;7.28;;;1.23;;
9767;SDS011;4923;52.520;13.494;2023-04-25T11:24:24;6.47;;;1.67;;
9767;SDS011;4923;52.520;13.494;2023-04-25T11:27:13;3.22;;;1.08;;
9767;SDS011;4923;52.520;13.494;2023-04-25T11:30:09;3.38;;;0.95;;
9767;SDS011;4923;52.520;13.494;2023-04-25T11:32:57;5.75;;;1.05;;
9767;SDS011;4923;52.520;13.494;2023-04-25T11:35:44;8.43;;;1.77;;
9767;SDS011;4923;52.520;13.494;2023-04-25T11:38:31;1.55;;;0.93;;
9767;SDS011;4923;52.520;13.494;2023-04-25T11:41:18;9.23;;;1.20;;
9767;SDS011;4923;52.520;13.494;2023-04-25T11:44:06;8.30;;;1.08;;
9767;SDS011;4923;52.520;13.494;2023-04-25T11:46:53;1.60;;;0.90;;
9767;SDS011;4923;52.520;13.494;2023-04-25T11:49:41;1.42;;;0.80;;
9767;SDS011;4923;52.520;13.494;2023-04-25T11:52:37;8.02;;;1.30;;
9767;SDS011;4923;52.520;13.494;2023-04-25T11:55:25;5.75;;;1.30;;
9767;SDS011;4923;52.520;13.494;2023-04-25T11:58:12;2.15;;;0.90;;
9767;SDS011;4923;52.520;13.494;2023-04-25T12:01:01;2.88;;;1.02;;
9767;SDS011;4923;52.520;13.494;2023-04-25T12:03:49;10.15;;;1.23;;
9767;SDS011;4923;52.520;13.494;2023-04-25T12:06:36;2.25;;;1.35;;
9767;SDS011;4923;52.520;13.494;2023-04-25T12:09:27;11.32;;;1.67;;
9767;SDS011;4923;52.520;13.494;2023-04-25T12:12:16;6.10;;;1.20;;
9767;SDS011;4923;52.520;13.494;2023-04-25T12:15:09;1.40;;;0.80;;
9767;SDS011;4923;52.520;13.494;2023-04-25T12:17:59;7.40;;;1.50;;
9767;SDS011;4923;52.520;13.494;2023-04-25T12:20:48;3.13;;;1.17;;
9767;SDS011;4923;52.520;13.494;2023-04-25T12:23:35;2.72;;;0.82;;
9767;SDS011;4923;52.520;13.494;2023-04-25T12:26:25;6.65;;;0.82;;
9767;SDS011;4923;52.520;13.494;2023-04-25T12:29:15;5.95;;;1.30;;
9767;SDS011;4923;52.520;13.494;2023-04-25T12:32:02;2.53;;;1.40;;
9767;SDS011;4923;52.520;13.494;2023-04-25T12:34:51;8.65;;;1.10;;
9767;SDS011;4923;52.520;13.494;2023-04-25T12:37:38;2.47;;;1.17;;
9767;SDS011;4923;52.520;13.494;2023-04-25T12:40:25;3.55;;;0.98;;
9767;SDS011;4923;52.520;13.494;2023-04-25T12:43:12;3.40;;;1.35;;
9767;SDS011;4923;52.520;13.494;2023-04-25T12:45:59;5.40;;;1.45;;
9767;SDS011;4923;52.520;13.494;2023-04-25T12:48:45;2.50;;;1.17;;
9767;SDS011;4923;52.520;13.494;2023-04-25T12:51:34;5.90;;;1.17;;
9767;SDS011;4923;52.520;13.494;2023-04-25T12:54:21;8.70;;;1.27;;
9767;SDS011;4923;52.520;13.494;2023-04-25T12:57:07;4.05;;;1.90;;
9767;SDS011;4923;52.520;13.494;2023-04-25T12:59:54;5.35;;;1.10;;
9767;SDS011;4923;52.520;13.494;2023-04-25T13:02:41;3.38;;;1.10;;
9767;SDS011;4923;52.520;13.494;2023-04-25T13:05:28;1.85;;;0.82;;
9767;SDS011;4923;52.520;13.494;2023-04-25T13:08:16;2.55;;;0.95;;
9767;SDS011;4923;52.520;13.494;2023-04-25T13:11:03;1.98;;;0.93;;
9767;SDS011;4923;52.520;13.494;2023-04-25T13:13:50;0.60;;;0.60;;
9767;SDS011;4923;52.520;13.494;2023-04-25T13:16:37;3.13;;;0.82;;
9767;SDS011;4923;52.520;13.494;2023-04-25T13:19:24;0.73;;;0.73;;
9767;SDS011;4923;52.520;13.494;2023-04-25T13:22:11;1.58;;;0.63;;
9767;SDS011;4923;52.520;13.494;2023-04-25T13:25:01;0.73;;;0.60;;
9767;SDS011;4923;52.520;13.494;2023-04-25T13:27:48;2.00;;;0.57;;
9767;SDS011;4923;52.520;13.494;2023-04-25T13:30:35;2.67;;;1.02;;
9767;SDS011;4923;52.520;13.494;2023-04-25T13:33:22;1.10;;;0.63;;
9767;SDS011;4923;52.520;13.494;2023-04-25T13:36:09;3.17;;;0.70;;
9767;SDS011;4923;52.520;13.494;2023-04-25T13:38:56;4.13;;;0.70;;
9767;SDS011;4923;52.520;13.494;2023-04-25T13:41:44;1.60;;;0.70;;
9767;SDS011;4923;52.520;13.494;2023-04-25T13:44:31;1.95;;;1.05;;
9767;SDS011;4923;52.520;13.494;2023-04-25T13:47:18;0.82;;;0.70;;
9767;SDS011;4923;52.520;13.494;2023-04-25T13:50:05;7.10;;;1.13;;
9767;SDS011;4923;52.520;13.494;2023-04-25T13:52:53;4.05;;;0.90;;
9767;SDS011;4923;52.520;13.494;2023-04-25T13:55:40;5.20;;;1.08;;
9767;SDS011;4923;52.520;13.494;2023-04-25T13:58:28;4.05;;;1.35;;
9767;SDS011;4923;52.520;13.494;2023-04-25T14:01:15;4.40;;;1.10;;
9767;SDS011;4923;52.520;13.494;2023-04-25T14:04:02;2.50;;;0.82;;
9767;SDS011;4923;52.520;13.494;2023-04-25T14:06:50;2.03;;;1.20;;
9767;SDS011;4923;52.520;13.494;2023-04-25T14:09:37;9.30;;;1.38;;
9767;SDS011;4923;52.520;13.494;2023-04-25T14:12:24;3.70;;;1.00;;
9767;SDS011;4923;52.520;13.494;2023-04-25T14:15:12;2.38;;;0.88;;
9767;SDS011;4923;52.520;13.494;2023-04-25T14:18:00;2.85;;;0.80;;
9767;SDS011;4923;52.520;13.494;2023-04-25T14:20:47;2.03;;;0.90;;
9767;SDS011;4923;52.520;13.494;2023-04-25T14:23:34;1.45;;;0.80;;
9767;SDS011;4923;52.520;13.494;2023-04-25T14:26:21;3.63;;;1.17;;
9767;SDS011;4923;52.520;13.494;2023-04-25T14:29:08;1.55;;;0.60;;
9767;SDS011;4923;52.520;13.494;2023-04-25T14:31:58;6.28;;;0.80;;
9767;SDS011;4923;52.520;13.494;2023-04-25T14:34:45;3.72;;;0.80;;
9767;SDS011;4923;52.520;13.494;2023-04-25T14:37:32;5.97;;;0.70;;
9767;SDS011;4923;52.520;13.494;2023-04-25T14:40:19;2.03;;;0.70;;
9767;SDS011;4923;52.520;13.494;2023-04-25T14:43:08;11.98;;;0.80;;
9767;SDS011;4923;52.520;13.494;2023-04-25T14:45:55;1.15;;;0.80;;
9767;SDS011;4923;52.520;13.494;2023-04-25T14:48:43;0.82;;;0.82;;
9767;SDS011;4923;52.520;13.494;2023-04-25T14:51:30;3.88;;;0.70;;
9767;SDS011;4923;52.520;13.494;2023-04-25T14:54:17;1.90;;;0.70;;
9767;SDS011;4923;52.520;13.494;2023-04-25T14:57:04;1.10;;;0.50;;
9767;SDS011;4923;52.520;13.494;2023-04-25T14:59:51;2.20;;;0.85;;
9767;SDS011;4923;52.520;13.494;2023-04-25T15:02:38;2.15;;;0.63;;
9767;SDS011;4923;52.520;13.494;2023-04-25T15:05:26;8.70;;;2.72;;
9767;SDS011;4923;52.520;13.494;2023-04-25T15:08:13;1.50;;;1.40;;
9767;SDS011;4923;52.520;13.494;2023-04-25T15:11:00;2.80;;;0.90;;
9767;SDS011;4923;52.520;13.494;2023-04-25T15:13:47;2.95;;;0.88;;
9767;SDS011;4923;52.520;13.494;2023-04-25T15:16:34;4.00;;;0.80;;
9767;SDS011;4923;52.520;13.494;2023-04-25T15:19:21;2.13;;;0.80;;
9767;SDS011;4923;52.520;13.494;2023-04-25T15:22:09;4.35;;;0.90;;
9767;SDS011;4923;52.520;13.494;2023-04-25T15:24:56;3.88;;;0.50;;
9767;SDS011;4923;52.520;13.494;2023-04-25T15:27:43;8.88;;;0.63;;
9767;SDS011;4923;52.520;13.494;2023-04-25T15:30:33;5.18;;;0.80;;
9767;SDS011;4923;52.520;13.494;2023-04-25T15:33:20;1.50;;;1.17;;
9767;SDS011;4923;52.520;13.494;2023-04-25T15:36:07;6.90;;;0.93;;
9767;SDS011;4923;52.520;13.494;2023-04-25T15:38:56;2.20;;;0.63;;
9767;SDS011;4923;52.520;13.494;2023-04-25T15:41:43;1.55;;;0.50;;
9767;SDS011;4923;52.520;13.494;2023-04-25T15:44:30;1.48;;;0.43;;
9767;SDS011;4923;52.520;13.494;2023-04-25T15:47:17;1.08;;;0.73;;
9767;SDS011;4923;52.520;13.494;2023-04-25T15:50:04;0.52;;;0.52;;
9767;SDS011;4923;52.520;13.494;2023-04-25T15:52:53;3.47;;;0.80;;
9767;SDS011;4923;52.520;13.494;2023-04-25T15:55:41;2.55;;;0.50;;
9767;SDS011;4923;52.520;13.494;2023-04-25T15:58:29;6.15;;;0.77;;
9767;SDS011;4923;52.520;13.494;2023-04-25T16:01:16;1.85;;;0.50;;
9767;SDS011;4923;52.520;13.494;2023-04-25T16:04:02;2.63;;;0.50;;
9767;SDS011;4923;52.520;13.494;2023-04-25T16:06:49;3.97;;;0.70;;
9767;SDS011;4923;52.520;13.494;2023-04-25T16:09:36;2.13;;;0.63;;
9767;SDS011;4923;52.520;13.494;2023-04-25T16:12:24;3.17;;;0.75;;
9767;SDS011;4923;52.520;13.494;2023-04-25T16:15:12;3.60;;;0.60;;
9767;SDS011;4923;52.520;13.494;2023-04-25T16:17:59;3.05;;;0.70;;
9767;SDS011;4923;52.520;13.494;2023-04-25T16:20:46;1.40;;;0.52;;
9767;SDS011;4923;52.520;13.494;2023-04-25T16:23:33;6.47;;;0.70;;
9767;SDS011;4923;52.520;13.494;2023-04-25T16:26:20;1.27;;;0.50;;
9767;SDS011;4923;52.520;13.494;2023-04-25T16:29:08;1.48;;;0.60;;
9767;SDS011;4923;52.520;13.494;2023-04-25T16:31:55;4.38;;;0.63;;
9767;SDS011;4923;52.520;13.494;2023-04-25T16:34:42;0.55;;;0.55;;
9767;SDS011;4923;52.520;13.494;2023-04-25T16:37:29;3.58;;;0.60;;
9767;SDS011;4923;52.520;13.494;2023-04-25T16:40:16;1.60;;;0.60;;
9767;SDS011;4923;52.520;13.494;2023-04-25T16:43:03;1.52;;;0.57;;
9767;SDS011;4923;52.520;13.494;2023-04-25T16:45:51;0.40;;;0.40;;
9767;SDS011;4923;52.520;13.494;2023-04-25T16:48:38;1.77;;;0.50;;
9767;SDS011;4923;52.520;13.494;2023-04-25T16:51:25;3.42;;;0.50;;
9767;SDS011;4923;52.520;13.494;2023-04-25T16:54:12;0.60;;;0.60;;
9767;SDS011;4923;52.520;13.494;2023-04-25T16:56:59;6.65;;;0.60;;
9767;SDS011;4923;52.520;13.494;2023-04-25T16:59:46;1.58;;;0.50;;
9767;SDS011;4923;52.520;13.494;2023-04-25T17:02:34;0.68;;;0.50;;
9767;SDS011;4923;52.520;13.494;2023-04-25T17:05:21;2.38;;;0.50;;